MCO weather

Orlando International Airport
Orlando, Florida, United States

Public forecast

Using degrees Fahrenheit for public forecast. Weather courtesy of forecast.io.

Current aviation weather report (METAR) for Orlando International Airport

Retrieved 2019/10/17 04:53 UTC (16 minutes ago):

KMCO 170453Z 28006KT 10SM BKN250 25/22 A2990 RMK AO2 SLP122 T02500222 403280222

Aviation forecast (TAF) for Orlando International Airport

Retrieved 2019-10-17 00:36 UTC (5 hours ago):

TAF KMCO 162333Z 1700/1806 26006KT P6SM SCT040 BKN250 FM170900 33005KT P6SM SCT025 BKN250 FM171500 33006KT P6SM SCT035 BKN060 FM180000 03005KT P6SM SCT040 SCT250